Aviation Digital Data Service (ADDS)

Output produced by TAFs form (0752 UTC 25 March 2017)
found at http://www.aviationweather.gov/adds/tafs/
 
METAR text: RORS 250700Z 36024KT 9999 -SHRA BKN018 19/15 Q1015
Conditions at: RORS (SHIMOJI-SHIMA IS, JP) observed 0700 UTC 25 March 2017
Temperature: 19.0°C (66°F)
Dewpoint: 15.0°C (59°F) [RH = 78%]
Pressure (altimeter): 29.97 inches Hg (1015.0 mb)
Winds: from the N (360 degrees) at 28 MPH (24 knots; 12.5 m/s)
Visibility: 6 or more miles (10+ km)
Ceiling: 1800 feet AGL
Clouds: broken clouds at 1800 feet AGL
Weather: -SHRA  (light rain showers)